You are not logged in, Click here to log in
機場資訊:LGAV Welcome to Taiwan Airways 台灣虛擬航空
ICAO: LGAV Country: 希臘-斯帕塔
Latitude: 37.9364 Longitude: 23.9445
Total Arrivals: 10 Total Departures: 14
Latest Arrival: LH1750 (EDDM-LGAV)ALAN. LIU Latest Departure: AZ719 (LGAV-LIRF)Stone. Chang
Scenery:
METAR : LGAV 141820Z 00000KT CAVOK 19/15 Q1020 NOSIG

雅典國際機場ATH